Terminal Aerodrome Forecast
Issued by NWS

Home | Current Version | Previous Version | Text Only | Print | Product List | Glossary On
Versions: 1 2 3 4 5 6 7 8 9 10 11 12
435
FTUS44 KSJT 262320
TAFJCT
TAF
KJCT 262320Z 2700/2724 30014G22KT P6SM SCT250
     FM270100 36009KT P6SM SCT250
     FM270500 VRB05KT P6SM SCT250
     FM271500 19012G20KT P6SM SCT250
     FM271700 19017G26KT P6SM SCT250=

USA.gov is the U.S. government's official web portal to all federal, state and local government web resources and services.